Ayer, Massachusetts
Current Conditions -  °F | °C
As of 12:03 PM on Thursday 23 Oct 2014 (Local Time) from KFIT Reporting Station
Light Rain Light Rain  
Wind Chill: 51°   Ceiling: 1300
Heat Index: 51°   Visibility: 7mi
Dew Point: 47°   Wind: 13mph
Humidity: 86%   Direction: 360°N
Pressure: 29.69"   Gusts: 26mph
Location:  42.56°N, 71.58°W
Report Text: KFIT 231603Z AUTO 36011G23KT 7SM -RA OVC013 11/08 A2969 RMK AO2 RAB1557 P0000 T01060083
Loading
Personal Weather Stations






























Interactive Weather Map New forecast layout! Learn more

10-Day Weather Forecast

Advertisements
Track Severe Weather on mobile